Time;durP1;ratioP1;P1;durP2;ratioP2;P2;SDS_P1;SDS_P2;PMS_P1;PMS_P2;Temp;Humidity;BMP_temperature;BMP_pressure;BME280_temperature;BME280_humidity;BME280_pressure;Samples;Min_cycle;Max_cycle;Signal;HPM_P1;HPM_P2
2022/10/20 00:00:29;;;;;;;11.85;9.82;;;18.80;74.60;;;;;;5052684;28;20389;-70
2022/10/20 00:02:54;;;;;;;12.20;10.23;;;18.80;74.60;;;;;;5052657;28;20044;-69
2022/10/20 00:05:20;;;;;;;11.60;9.73;;;18.80;74.90;;;;;;5052822;28;20092;-70
2022/10/20 00:07:46;;;;;;;11.75;10.18;;;18.80;74.80;;;;;;5052826;28;20044;-69
2022/10/20 00:10:11;;;;;;;16.80;9.45;;;18.80;74.80;;;;;;5052671;28;20028;-69
2022/10/20 00:12:37;;;;;;;13.45;9.95;;;18.70;74.60;;;;;;5052307;28;20044;-69
2022/10/20 00:15:03;;;;;;;14.25;9.90;;;18.70;74.60;;;;;;5052573;28;20067;-69
2022/10/20 00:17:29;;;;;;;14.73;9.75;;;18.70;74.80;;;;;;5054759;28;20025;-69
2022/10/20 00:19:54;;;;;;;12.23;10.15;;;18.70;74.80;;;;;;5056453;28;20047;-69
2022/10/20 00:22:20;;;;;;;17.13;10.32;;;18.70;74.60;;;;;;5056623;28;20032;-69
2022/10/20 00:24:46;;;;;;;12.95;10.07;;;18.70;74.60;;;;;;5056202;28;20060;-69
2022/10/20 00:27:11;;;;;;;15.45;10.80;;;18.70;74.50;;;;;;5056846;28;20029;-69
2022/10/20 00:29:37;;;;;;;13.98;9.63;;;18.70;74.50;;;;;;5056571;28;20393;-69
2022/10/20 00:32:03;;;;;;;13.60;10.45;;;18.70;74.80;;;;;;5056209;28;20119;-69
2022/10/20 00:34:28;;;;;;;14.07;10.85;;;18.70;74.70;;;;;;5056218;28;20033;-69
2022/10/20 00:36:54;;;;;;;11.80;9.93;;;18.70;74.60;;;;;;5056039;28;20037;-69
2022/10/20 00:39:19;;;;;;;15.13;9.60;;;18.70;74.50;;;;;;5053972;28;20052;-69
2022/10/20 00:41:45;;;;;;;14.55;9.93;;;18.70;74.50;;;;;;5056041;28;20121;-69
2022/10/20 00:44:47;;;;;;;15.13;10.80;;;18.70;74.50;;;;;;5056076;28;20112;-69
2022/10/20 00:47:18;;;;;;;13.95;9.25;;;18.70;74.50;;;;;;5056151;28;20029;-69
2022/10/20 00:49:44;;;;;;;13.43;9.68;;;18.60;74.50;;;;;;5055957;28;20032;-69
2022/10/20 00:52:10;;;;;;;13.68;9.07;;;18.60;74.50;;;;;;5056127;28;20115;-70
2022/10/20 00:54:36;;;;;;;13.55;10.05;;;18.60;74.40;;;;;;5055898;28;20525;-70
2022/10/20 00:57:02;;;;;;;11.95;9.65;;;18.60;74.60;;;;;;5038005;28;20029;-69
2022/10/20 00:59:32;;;;;;;17.70;9.95;;;18.60;74.60;;;;;;5052949;28;20041;-70
2022/10/20 01:02:00;;;;;;;11.65;9.25;;;18.60;74.60;;;;;;5053112;28;20060;-69
2022/10/20 01:04:29;;;;;;;11.85;9.23;;;18.60;74.60;;;;;;5053843;28;20033;-69
2022/10/20 01:06:55;;;;;;;14.43;9.20;;;18.60;74.70;;;;;;5055591;28;20401;-70
2022/10/20 01:09:21;;;;;;;18.20;9.52;;;18.50;74.80;;;;;;5055795;28;20032;-69
2022/10/20 01:12:05;;;;;;;14.43;9.25;;;18.50;74.80;;;;;;5055459;28;20041;-69
2022/10/20 01:14:52;;;;;;;11.93;9.57;;;18.40;74.80;;;;;;5055182;28;20095;-70
2022/10/20 01:17:35;;;;;;;13.88;9.45;;;18.40;75.00;;;;;;5055202;28;20029;-69
2022/10/20 01:20:07;;;;;;;10.95;9.35;;;18.40;75.20;;;;;;5055122;28;20544;-68
2022/10/20 01:22:54;;;;;;;15.20;9.27;;;18.30;75.20;;;;;;5055187;28;20390;-68
2022/10/20 01:25:40;;;;;;;13.52;8.90;;;18.40;75.10;;;;;;5055163;28;20112;-70
2022/10/20 01:28:13;;;;;;;16.13;9.25;;;18.30;75.00;;;;;;5054119;28;20111;-69
2022/10/20 01:30:45;;;;;;;13.52;9.10;;;18.40;75.30;;;;;;5055029;28;20033;-69
2022/10/20 01:33:19;;;;;;;12.00;8.98;;;18.30;75.00;;;;;;5054863;28;20505;-70
2022/10/20 01:36:01;;;;;;;11.65;9.57;;;18.30;75.00;;;;;;5054762;28;20030;-69
2022/10/20 01:38:29;;;;;;;15.45;8.48;;;18.30;75.20;;;;;;5055025;28;20090;-69
2022/10/20 01:41:00;;;;;;;14.70;8.95;;;18.30;74.90;;;;;;5054581;28;20489;-70
2022/10/20 01:43:30;;;;;;;11.85;9.00;;;18.30;74.60;;;;;;5055068;28;20031;-69
2022/10/20 01:45:58;;;;;;;12.68;8.30;;;18.30;74.60;;;;;;5054855;28;20033;-69
2022/10/20 01:48:27;;;;;;;11.05;8.52;;;18.30;74.60;;;;;;5054994;28;20043;-68
2022/10/20 01:50:54;;;;;;;13.57;8.48;;;18.30;74.70;;;;;;5054675;28;20512;-69
2022/10/20 01:53:20;;;;;;;10.13;8.90;;;18.30;74.50;;;;;;5054643;28;20052;-68
2022/10/20 01:55:50;;;;;;;10.50;8.80;;;18.30;74.50;;;;;;5054775;28;20494;-69
2022/10/20 01:58:27;;;;;;;15.82;8.43;;;18.30;74.50;;;;;;5054879;28;20029;-69
2022/10/20 02:00:57;;;;;;;10.32;8.52;;;18.30;74.30;;;;;;5054798;28;20112;-69
2022/10/20 02:03:54;;;;;;;13.98;8.30;;;18.30;74.50;;;;;;5054754;28;20036;-69
2022/10/20 02:06:40;;;;;;;10.07;7.72;;;18.40;74.50;;;;;;5054852;28;20039;-69
2022/10/20 02:09:21;;;;;;;11.82;8.15;;;18.30;74.10;;;;;;5044040;28;20037;-70
2022/10/20 02:11:56;;;;;;;12.57;8.32;;;18.30;74.40;;;;;;5054728;28;20033;-69
2022/10/20 02:14:22;;;;;;;14.15;9.50;;;18.30;74.30;;;;;;5054322;28;20044;-68
2022/10/20 02:16:56;;;;;;;14.35;8.02;;;18.30;74.20;;;;;;5054581;28;20033;-69
2022/10/20 02:19:25;;;;;;;11.75;7.55;;;18.30;74.20;;;;;;5054428;28;20111;-69
2022/10/20 02:21:53;;;;;;;12.40;8.13;;;18.30;74.00;;;;;;5054279;28;20083;-68
2022/10/20 02:24:22;;;;;;;10.82;8.25;;;18.30;74.00;;;;;;5054329;28;20033;-69
2022/10/20 02:26:50;;;;;;;11.02;8.15;;;18.30;74.20;;;;;;5054190;28;20044;-69
2022/10/20 02:29:28;;;;;;;11.30;8.27;;;18.30;74.50;;;;;;5054172;28;20111;-69
2022/10/20 02:31:54;;;;;;;11.80;8.45;;;18.30;74.40;;;;;;5054152;28;20047;-69
2022/10/20 02:34:23;;;;;;;12.10;8.13;;;18.30;74.50;;;;;;5053558;28;20051;-69
2022/10/20 02:36:49;;;;;;;14.80;8.90;;;18.30;74.40;;;;;;5054131;28;20362;-70
2022/10/20 02:39:15;;;;;;;13.40;8.73;;;18.30;74.50;;;;;;5053155;28;20060;-70
2022/10/20 02:41:40;;;;;;;10.30;8.20;;;18.20;74.60;;;;;;5053889;28;20112;-69
2022/10/20 02:44:06;;;;;;;10.10;8.15;;;18.20;74.70;;;;;;5054050;28;20037;-69
2022/10/20 02:46:32;;;;;;;11.77;8.10;;;18.20;74.80;;;;;;5053879;28;20037;-69
2022/10/20 02:48:57;;;;;;;11.57;8.02;;;18.20;74.60;;;;;;5053881;28;20389;-69
2022/10/20 02:51:23;;;;;;;11.15;8.23;;;18.20;74.80;;;;;;5053676;28;20436;-70
2022/10/20 02:53:49;;;;;;;11.25;8.32;;;18.20;74.70;;;;;;5053760;28;20037;-69
2022/10/20 02:56:14;;;;;;;9.82;8.30;;;18.20;74.80;;;;;;5053864;28;20072;-69
2022/10/20 02:58:40;;;;;;;15.07;8.63;;;18.20;74.60;;;;;;5053391;28;20037;-70
2022/10/20 03:01:06;;;;;;;12.98;7.85;;;18.20;74.70;;;;;;5053600;28;20033;-70
2022/10/20 03:03:31;;;;;;;10.75;8.60;;;18.20;74.80;;;;;;5053735;28;20037;-70
2022/10/20 03:05:57;;;;;;;12.10;8.45;;;18.20;74.70;;;;;;5053384;28;20037;-69
2022/10/20 03:08:23;;;;;;;9.65;7.93;;;18.10;74.80;;;;;;5053524;28;20112;-70
2022/10/20 03:10:48;;;;;;;10.38;8.13;;;18.10;75.00;;;;;;5053247;28;20035;-69
2022/10/20 03:13:14;;;;;;;12.73;8.38;;;18.10;75.20;;;;;;5053493;28;20067;-69
2022/10/20 03:15:40;;;;;;;11.65;8.85;;;18.10;75.30;;;;;;5053589;28;20029;-69
2022/10/20 03:18:06;;;;;;;12.27;9.30;;;18.10;75.20;;;;;;5053194;28;20037;-68
2022/10/20 03:20:32;;;;;;;11.07;8.85;;;18.10;75.60;;;;;;5053064;28;20032;-69
2022/10/20 03:22:58;;;;;;;12.90;8.98;;;18.10;75.70;;;;;;5053147;28;20032;-69
2022/10/20 03:25:24;;;;;;;11.75;8.48;;;18.00;75.50;;;;;;5052956;28;20029;-69
2022/10/20 03:27:50;;;;;;;16.55;8.73;;;18.00;75.80;;;;;;5053003;28;20044;-69
2022/10/20 03:30:15;;;;;;;12.73;8.40;;;18.00;75.90;;;;;;5053169;28;20029;-69
2022/10/20 03:32:41;;;;;;;10.82;8.27;;;17.90;75.80;;;;;;5052956;28;20040;-69
2022/10/20 03:35:07;;;;;;;12.45;8.38;;;18.00;76.10;;;;;;5053095;28;20037;-69
2022/10/20 03:37:33;;;;;;;11.82;9.60;;;17.90;76.10;;;;;;5053179;28;20086;-69
2022/10/20 03:39:58;;;;;;;12.32;9.30;;;17.90;76.20;;;;;;5052777;28;20049;-67
2022/10/20 03:42:24;;;;;;;9.52;8.52;;;17.90;76.00;;;;;;5052720;28;20557;-70
2022/10/20 03:44:49;;;;;;;13.93;9.27;;;17.90;76.10;;;;;;5052980;28;20033;-69
2022/10/20 03:47:15;;;;;;;12.05;8.35;;;17.90;76.10;;;;;;5052761;28;20068;-69
2022/10/20 03:49:41;;;;;;;12.82;9.48;;;17.90;76.50;;;;;;5052764;28;20029;-69
2022/10/20 03:52:06;;;;;;;17.23;9.05;;;17.80;76.30;;;;;;5052157;28;20469;-69
2022/10/20 03:54:34;;;;;;;9.60;7.22;;;17.80;76.50;;;;;;5052769;28;20037;-69
2022/10/20 03:57:00;;;;;;;12.82;8.68;;;17.80;77.30;;;;;;5053106;28;20029;-69
2022/10/20 03:59:26;;;;;;;13.65;8.50;;;17.80;77.30;;;;;;5052397;28;20040;-70
2022/10/20 04:01:53;;;;;;;14.02;10.02;;;17.70;77.20;;;;;;5053075;28;20386;-69
2022/10/20 04:04:18;;;;;;;11.30;9.88;;;17.70;77.10;;;;;;5052884;28;20029;-69
2022/10/20 04:06:44;;;;;;;12.00;10.70;;;17.70;77.10;;;;;;5053314;28;20029;-69
2022/10/20 04:09:10;;;;;;;17.70;13.02;;;17.70;77.40;;;;;;5052242;28;20044;-69
2022/10/20 04:11:35;;;;;;;15.77;10.25;;;17.70;77.60;;;;;;5052638;28;20044;-69
2022/10/20 04:14:01;;;;;;;10.80;9.10;;;17.60;77.40;;;;;;5052554;28;20120;-70
2022/10/20 04:16:27;;;;;;;13.65;11.50;;;17.60;77.70;;;;;;5052557;28;20493;-69
2022/10/20 04:18:53;;;;;;;12.40;11.02;;;17.50;77.60;;;;;;5052746;28;20041;-70
2022/10/20 04:21:19;;;;;;;15.88;9.25;;;17.50;77.90;;;;;;5052221;28;20022;-69
2022/10/20 04:23:45;;;;;;;18.13;12.45;;;17.60;77.90;;;;;;5052556;28;20044;-69
2022/10/20 04:26:12;;;;;;;14.05;10.80;;;17.50;78.00;;;;;;5052611;28;20040;-69
2022/10/20 04:28:38;;;;;;;17.85;9.55;;;17.50;78.10;;;;;;5052614;28;20037;-69
2022/10/20 04:31:05;;;;;;;12.10;9.05;;;17.50;78.40;;;;;;5052821;28;20025;-69
2022/10/20 04:33:31;;;;;;;13.13;8.70;;;17.50;78.50;;;;;;5052483;28;20111;-68
2022/10/20 04:36:01;;;;;;;12.30;9.27;;;17.40;78.70;;;;;;5052238;28;20025;-70
2022/10/20 04:38:29;;;;;;;11.88;9.73;;;17.40;78.90;;;;;;5052838;28;20091;-69
2022/10/20 04:41:00;;;;;;;12.15;9.30;;;17.40;78.90;;;;;;5052452;28;20139;-68
2022/10/20 04:43:26;;;;;;;14.13;9.15;;;17.40;79.20;;;;;;5050303;28;20051;-70
2022/10/20 04:45:57;;;;;;;13.43;9.00;;;17.40;79.20;;;;;;5049857;28;20047;-69
2022/10/20 04:48:23;;;;;;;14.93;9.73;;;17.40;79.40;;;;;;5050489;28;20393;-69
2022/10/20 04:51:03;;;;;;;11.48;9.70;;;17.30;79.60;;;;;;5052332;28;20107;-69
2022/10/20 04:53:29;;;;;;;14.98;9.90;;;17.30;79.60;;;;;;5052199;28;20041;-69
2022/10/20 04:55:56;;;;;;;16.38;9.57;;;17.30;79.80;;;;;;5052602;28;20044;-69
2022/10/20 04:58:23;;;;;;;11.65;9.82;;;17.30;79.80;;;;;;5052124;28;20072;-68
2022/10/20 05:00:49;;;;;;;11.85;9.10;;;17.30;79.60;;;;;;5052385;28;20036;-69
2022/10/20 05:03:15;;;;;;;15.88;9.75;;;17.20;79.80;;;;;;5054012;28;20401;-69
2022/10/20 05:05:40;;;;;;;13.05;9.35;;;17.20;79.80;;;;;;5055984;28;20033;-69
2022/10/20 05:08:06;;;;;;;14.38;9.90;;;17.20;80.20;;;;;;5054504;28;20041;-71
2022/10/20 05:10:31;;;;;;;12.50;9.40;;;17.10;80.40;;;;;;5053011;28;20029;-70
2022/10/20 05:12:57;;;;;;;17.65;10.45;;;17.10;80.30;;;;;;5052742;28;20056;-70
2022/10/20 05:15:23;;;;;;;12.88;9.55;;;17.10;80.40;;;;;;5054512;28;20029;-69
2022/10/20 05:17:48;;;;;;;13.60;9.55;;;17.00;81.00;;;;;;5055445;28;20032;-69
2022/10/20 05:20:14;;;;;;;14.27;9.40;;;17.10;80.60;;;;;;5055457;28;20051;-69
2022/10/20 05:22:40;;;;;;;12.60;8.90;;;17.00;80.40;;;;;;5055146;28;20029;-69
2022/10/20 05:25:06;;;;;;;11.32;8.85;;;17.00;80.60;;;;;;5055540;28;20037;-70
2022/10/20 05:27:31;;;;;;;12.85;9.15;;;17.00;80.80;;;;;;5055117;28;20113;-69
2022/10/20 05:29:57;;;;;;;25.85;9.80;;;17.00;80.80;;;;;;5055183;28;20551;-69
2022/10/20 05:32:23;;;;;;;11.35;9.65;;;17.00;80.60;;;;;;5054896;28;20033;-69
2022/10/20 05:34:48;;;;;;;11.88;8.65;;;17.00;80.90;;;;;;5055228;28;20470;-70
2022/10/20 05:37:14;;;;;;;14.30;9.70;;;16.90;80.90;;;;;;5055298;28;20033;-69
2022/10/20 05:39:41;;;;;;;13.80;10.00;;;17.00;81.20;;;;;;5054836;28;20080;-70
2022/10/20 05:42:06;;;;;;;15.18;9.90;;;17.00;81.40;;;;;;5055479;28;20060;-69
2022/10/20 05:44:32;;;;;;;14.20;10.13;;;16.90;81.20;;;;;;5055083;28;20473;-69
2022/10/20 05:46:58;;;;;;;11.95;9.25;;;16.90;81.00;;;;;;5054596;28;20051;-70
2022/10/20 05:49:23;;;;;;;11.32;9.27;;;16.90;81.20;;;;;;5053132;28;20045;-68
2022/10/20 05:51:49;;;;;;;13.75;9.07;;;16.90;81.30;;;;;;5054864;28;20033;-70
2022/10/20 05:54:15;;;;;;;15.63;9.45;;;16.90;81.00;;;;;;5054355;28;20037;-69
2022/10/20 05:56:41;;;;;;;16.27;9.07;;;16.80;81.10;;;;;;5054561;28;20033;-68
2022/10/20 05:59:07;;;;;;;18.83;9.63;;;16.80;81.20;;;;;;5054820;28;20036;-69
2022/10/20 06:01:48;;;;;;;14.30;8.98;;;16.90;81.20;;;;;;5053880;28;20037;-69
2022/10/20 06:04:19;;;;;;;14.43;9.10;;;16.90;81.50;;;;;;5052958;28;20108;-69
2022/10/20 06:06:44;;;;;;;13.48;9.20;;;16.90;81.30;;;;;;5054396;28;20041;-68
2022/10/20 06:09:10;;;;;;;14.32;8.57;;;16.80;81.20;;;;;;5054271;28;20454;-69
2022/10/20 06:11:37;;;;;;;11.48;8.60;;;16.90;81.20;;;;;;5053972;28;20508;-69
2022/10/20 06:14:02;;;;;;;14.77;8.70;;;16.90;80.70;;;;;;5053498;28;20045;-69
2022/10/20 06:16:28;;;;;;;11.93;8.63;;;16.90;80.60;;;;;;5027733;28;20045;-69
2022/10/20 06:18:56;;;;;;;10.93;8.55;;;16.90;80.70;;;;;;5054508;28;20037;-69
2022/10/20 06:21:25;;;;;;;13.10;8.60;;;16.90;80.70;;;;;;5054015;28;20059;-69
2022/10/20 06:23:51;;;;;;;14.27;8.23;;;16.90;80.70;;;;;;5053668;28;20033;-69
2022/10/20 06:26:23;;;;;;;14.93;8.73;;;16.90;80.60;;;;;;5053563;28;20025;-69
2022/10/20 06:28:51;;;;;;;10.57;8.13;;;16.90;80.60;;;;;;5053542;28;20127;-69
2022/10/20 06:31:22;;;;;;;12.20;7.60;;;17.00;80.70;;;;;;5054224;28;20029;-69
2022/10/20 06:33:49;;;;;;;13.93;7.72;;;17.00;80.60;;;;;;5053716;28;20079;-69
2022/10/20 06:36:16;;;;;;;11.73;7.68;;;17.10;80.30;;;;;;5053991;28;20033;-69
2022/10/20 06:38:42;;;;;;;11.27;7.82;;;17.10;80.30;;;;;;5053885;28;20474;-69
2022/10/20 06:41:11;;;;;;;9.27;7.63;;;17.10;80.10;;;;;;5053221;28;20041;-68
2022/10/20 06:43:36;;;;;;;10.73;7.45;;;17.20;80.10;;;;;;5053801;28;20048;-69
2022/10/20 06:46:05;;;;;;;8.48;7.38;;;17.20;79.90;;;;;;5053795;28;20029;-69
2022/10/20 06:48:31;;;;;;;10.55;7.22;;;17.20;79.70;;;;;;5053879;28;20429;-68
2022/10/20 06:51:01;;;;;;;11.50;7.28;;;17.30;79.60;;;;;;5053755;28;20060;-69
2022/10/20 06:53:28;;;;;;;20.48;8.20;;;17.30;79.40;;;;;;5035606;28;20496;-69
2022/10/20 06:56:06;;;;;;;8.85;7.22;;;17.30;79.40;;;;;;5053193;28;20029;-70
2022/10/20 06:58:33;;;;;;;11.05;7.32;;;17.30;79.40;;;;;;5053665;28;20029;-69
2022/10/20 07:01:05;;;;;;;9.00;7.07;;;17.40;79.30;;;;;;5053749;28;20037;-69
2022/10/20 07:03:33;;;;;;;16.97;7.77;;;17.40;79.10;;;;;;5054033;28;20094;-69
2022/10/20 07:05:59;;;;;;;9.80;7.35;;;17.50;79.00;;;;;;5053828;28;20271;-70
2022/10/20 07:08:27;;;;;;;12.95;7.38;;;17.50;78.80;;;;;;5053652;28;20377;-69
2022/10/20 07:11:05;;;;;;;9.75;7.32;;;17.60;78.50;;;;;;5053382;28;20033;-69
2022/10/20 07:13:31;;;;;;;13.05;6.97;;;17.60;78.20;;;;;;5053285;28;20499;-69
2022/10/20 07:15:58;;;;;;;12.45;7.28;;;17.70;78.20;;;;;;5053277;28;20029;-70
2022/10/20 07:18:25;;;;;;;10.82;7.25;;;17.70;78.30;;;;;;5053524;28;20116;-69
2022/10/20 07:20:55;;;;;;;10.93;6.82;;;17.80;78.10;;;;;;5053084;28;20064;-69
2022/10/20 07:23:21;;;;;;;10.70;6.50;;;17.80;77.70;;;;;;5051708;28;20040;-70
2022/10/20 07:25:47;;;;;;;8.52;6.72;;;17.80;77.50;;;;;;5052147;28;20041;-69
2022/10/20 07:28:12;;;;;;;9.32;6.82;;;17.80;77.30;;;;;;5052957;28;20036;-69
2022/10/20 07:30:40;;;;;;;9.38;6.63;;;17.90;77.50;;;;;;5052540;28;20036;-69
2022/10/20 07:33:06;;;;;;;8.90;6.40;;;17.90;77.70;;;;;;5052201;28;20049;-69
2022/10/20 07:35:33;;;;;;;11.57;6.45;;;17.90;78.20;;;;;;5052717;28;20489;-69
2022/10/20 07:37:59;;;;;;;11.25;7.03;;;18.00;77.70;;;;;;5053370;28;20103;-69
2022/10/20 07:40:24;;;;;;;8.95;6.22;;;18.00;77.50;;;;;;5052791;28;20459;-68
2022/10/20 07:42:50;;;;;;;8.43;6.07;;;18.10;77.00;;;;;;5053188;28;20048;-69
2022/10/20 07:45:15;;;;;;;12.18;6.72;;;18.10;76.80;;;;;;5052917;28;20041;-70
2022/10/20 07:47:41;;;;;;;12.93;6.75;;;18.20;76.80;;;;;;5051091;28;20068;-68
2022/10/20 07:50:08;;;;;;;10.82;6.50;;;18.20;77.10;;;;;;5052480;28;20040;-69
2022/10/20 07:52:34;;;;;;;9.63;6.07;;;18.20;76.10;;;;;;5052125;28;20037;-69
2022/10/20 07:54:59;;;;;;;8.70;5.72;;;18.30;76.00;;;;;;5052501;28;20477;-69
2022/10/20 07:57:25;;;;;;;9.75;6.03;;;18.30;76.20;;;;;;5052044;28;20035;-69
2022/10/20 07:59:51;;;;;;;11.90;6.57;;;18.40;76.30;;;;;;5052929;28;20036;-68
2022/10/20 08:02:16;;;;;;;6.97;5.82;;;18.40;76.20;;;;;;5050097;28;20072;-69
2022/10/20 08:04:43;;;;;;;8.75;5.55;;;18.50;76.00;;;;;;5050052;28;20095;-70
2022/10/20 08:07:11;;;;;;;9.27;5.78;;;18.60;75.70;;;;;;5051031;28;20039;-70
2022/10/20 08:09:37;;;;;;;10.40;5.78;;;18.60;75.40;;;;;;5052039;28;20035;-70
2022/10/20 08:12:03;;;;;;;9.57;5.65;;;18.70;75.10;;;;;;5052567;28;20119;-70
2022/10/20 08:14:32;;;;;;;8.38;5.20;;;18.70;75.40;;;;;;5052465;28;20468;-69
2022/10/20 08:16:58;;;;;;;10.88;5.35;;;18.70;74.90;;;;;;5052377;28;20075;-70
2022/10/20 08:19:24;;;;;;;9.70;5.80;;;18.70;73.90;;;;;;5052695;28;20170;-69
2022/10/20 08:21:50;;;;;;;8.75;5.53;;;18.80;74.00;;;;;;5052150;28;20524;-69
2022/10/20 08:24:16;;;;;;;19.02;6.00;;;18.80;73.70;;;;;;5050371;28;20037;-69
2022/10/20 08:26:42;;;;;;;12.10;5.88;;;18.90;73.20;;;;;;5049457;28;20040;-70
2022/10/20 08:29:07;;;;;;;15.57;5.43;;;18.90;72.60;;;;;;5050638;28;20040;-70
2022/10/20 08:31:33;;;;;;;14.00;5.50;;;19.00;72.70;;;;;;5052482;28;20099;-70
2022/10/20 08:33:59;;;;;;;7.90;5.38;;;19.00;72.80;;;;;;5051975;28;20210;-69
2022/10/20 08:36:24;;;;;;;8.80;6.28;;;19.00;72.10;;;;;;5052562;28;20612;-70
2022/10/20 08:38:50;;;;;;;9.48;5.40;;;19.10;72.40;;;;;;5055424;28;20033;-70
2022/10/20 08:41:26;;;;;;;9.48;5.47;;;19.10;71.80;;;;;;5056272;28;20132;-69
2022/10/20 08:43:54;;;;;;;12.82;5.70;;;19.20;72.00;;;;;;5056119;28;20045;-70
2022/10/20 08:46:27;;;;;;;10.45;5.47;;;19.20;72.20;;;;;;5056294;28;20532;-69
2022/10/20 08:48:53;;;;;;;16.05;6.03;;;19.30;72.40;;;;;;5056479;28;20072;-69
2022/10/20 08:51:26;;;;;;;8.73;5.53;;;19.30;72.20;;;;;;5056459;28;20461;-69
2022/10/20 08:53:56;;;;;;;9.40;5.38;;;19.40;71.70;;;;;;5055929;28;20527;-69
2022/10/20 08:56:27;;;;;;;9.57;5.35;;;19.50;71.70;;;;;;5055996;28;20037;-70
2022/10/20 08:58:53;;;;;;;14.32;6.78;;;19.50;71.60;;;;;;5056195;28;20033;-70
2022/10/20 09:01:27;;;;;;;9.57;5.80;;;19.60;71.20;;;;;;5056142;28;20036;-68
2022/10/20 09:04:31;;;;;;;6.15;5.05;;;19.60;71.10;;;;;;5055977;28;20087;-70
2022/10/20 09:07:04;;;;;;;10.77;5.85;;;19.60;70.70;;;;;;5055828;28;20037;-69
2022/10/20 09:09:30;;;;;;;7.03;5.35;;;19.60;70.90;;;;;;5055979;28;20363;-69
2022/10/20 09:12:03;;;;;;;11.35;5.05;;;19.70;71.20;;;;;;5055940;28;20032;-69
2022/10/20 09:14:32;;;;;;;9.93;5.20;;;19.70;70.40;;;;;;5055615;28;20103;-69
2022/10/20 09:16:58;;;;;;;9.38;5.20;;;19.70;70.60;;;;;;5037902;28;20397;-70
2022/10/20 09:19:24;;;;;;;6.90;5.20;;;19.70;69.60;;;;;;5055748;28;20037;-69
2022/10/20 09:21:56;;;;;;;10.55;5.03;;;19.70;69.50;;;;;;5055579;28;20504;-69
2022/10/20 09:24:26;;;;;;;13.13;5.30;;;19.70;69.70;;;;;;5055750;28;20402;-69
2022/10/20 09:26:52;;;;;;;8.77;5.93;;;19.80;70.60;;;;;;5055475;28;20036;-70
2022/10/20 09:29:33;;;;;;;12.40;5.45;;;19.80;70.00;;;;;;5055669;28;20037;-69
2022/10/20 09:31:58;;;;;;;6.63;5.07;;;19.80;69.80;;;;;;5055438;28;20358;-69
2022/10/20 09:34:29;;;;;;;7.88;5.60;;;19.80;69.40;;;;;;5055500;28;20114;-69
2022/10/20 09:37:02;;;;;;;8.63;5.13;;;19.80;69.50;;;;;;5055291;28;20110;-70
2022/10/20 09:39:46;;;;;;;14.32;5.78;;;19.80;69.20;;;;;;5055391;28;20048;-69
2022/10/20 09:42:34;;;;;;;8.27;5.20;;;19.90;69.30;;;;;;5055319;28;20059;-69
2022/10/20 09:45:01;;;;;;;8.73;5.43;;;19.80;69.90;;;;;;5055150;28;20033;-69
2022/10/20 09:47:27;;;;;;;9.52;4.57;;;19.90;69.50;;;;;;5055444;28;20490;-69
2022/10/20 09:50:23;;;;;;;7.53;5.30;;;20.00;69.60;;;;;;5054597;28;20032;-69
2022/10/20 09:52:49;;;;;;;10.52;5.32;;;20.10;69.90;;;;;;5055034;28;20532;-69
2022/10/20 09:55:28;;;;;;;10.48;5.18;;;20.10;69.20;;;;;;5055060;28;20139;-69
2022/10/20 09:57:57;;;;;;;11.70;4.82;;;20.20;69.00;;;;;;5054967;28;20029;-69
2022/10/20 10:00:26;;;;;;;12.35;5.55;;;20.30;68.80;;;;;;5054949;28;20056;-69
2022/10/20 10:03:18;;;;;;;19.23;5.97;;;20.30;68.20;;;;;;5054962;28;20062;-69
2022/10/20 10:05:44;;;;;;;9.30;5.53;;;20.40;69.20;;;;;;5055211;28;20032;-69
2022/10/20 10:08:14;;;;;;;6.70;5.32;;;20.50;68.70;;;;;;5054950;28;20029;-69
2022/10/20 10:10:41;;;;;;;9.40;5.18;;;20.60;68.80;;;;;;5054940;28;20041;-69
2022/10/20 10:13:23;;;;;;;7.45;5.43;;;20.60;68.60;;;;;;5054662;28;20092;-69
2022/10/20 10:16:05;;;;;;;10.02;5.35;;;20.70;68.30;;;;;;5054500;28;20492;-69
2022/10/20 10:18:31;;;;;;;15.05;5.40;;;20.80;68.40;;;;;;5054698;28;20367;-69
2022/10/20 10:20:59;;;;;;;8.50;5.45;;;20.90;68.30;;;;;;5054565;28;20033;-69
2022/10/20 10:23:27;;;;;;;8.57;5.28;;;21.00;66.70;;;;;;5054387;28;20521;-68
2022/10/20 10:25:53;;;;;;;7.85;5.68;;;21.00;66.30;;;;;;5054131;28;20079;-69
2022/10/20 10:28:24;;;;;;;8.85;5.22;;;21.10;66.90;;;;;;5054130;28;20029;-69
2022/10/20 10:31:15;;;;;;;10.98;5.10;;;21.10;66.90;;;;;;5054475;28;20033;-69
2022/10/20 10:33:41;;;;;;;12.90;5.57;;;21.10;64.80;;;;;;5054832;28;20149;-69
2022/10/20 10:36:23;;;;;;;9.40;4.93;;;21.20;65.70;;;;;;5054090;28;20174;-71
2022/10/20 10:38:49;;;;;;;7.18;4.80;;;21.20;65.90;;;;;;5054148;28;20419;-69
2022/10/20 10:41:20;;;;;;;12.75;4.88;;;21.30;65.10;;;;;;5053942;28;20049;-68
2022/10/20 10:44:06;;;;;;;12.07;4.38;;;21.30;63.70;;;;;;5053986;28;20509;-68
2022/10/20 10:46:52;;;;;;;9.65;4.40;;;21.40;64.50;;;;;;5051158;28;20033;-69
2022/10/20 10:49:24;;;;;;;7.07;4.75;;;21.40;64.80;;;;;;5050727;28;20033;-69
2022/10/20 10:52:22;;;;;;;10.35;5.43;;;21.50;64.20;;;;;;5051092;28;20041;-70
2022/10/20 10:55:11;;;;;;;7.55;5.15;;;21.50;65.20;;;;;;5039757;28;20053;-69
2022/10/20 10:58:23;;;;;;;8.02;5.07;;;21.60;64.90;;;;;;5053838;28;20671;-68
2022/10/20 11:01:14;;;;;;;9.87;5.40;;;21.60;64.40;;;;;;4972178;28;20039;-70
2022/10/20 11:04:24;;;;;;;8.77;5.40;;;21.70;64.20;;;;;;5050459;28;20271;-69
2022/10/20 11:07:27;;;;;;;8.77;5.15;;;21.70;64.30;;;;;;5053547;28;20060;-68
2022/10/20 11:10:14;;;;;;;14.55;5.15;;;21.80;63.50;;;;;;5053577;28;20500;-69
2022/10/20 11:13:07;;;;;;;10.07;5.50;;;21.90;64.10;;;;;;5053493;28;20128;-68
2022/10/20 11:15:42;;;;;;;8.60;5.28;;;22.00;63.60;;;;;;5053550;28;20037;-70
2022/10/20 11:18:43;;;;;;;11.25;5.18;;;22.00;60.90;;;;;;5053418;28;20036;-69
2022/10/20 11:21:33;;;;;;;8.95;5.38;;;22.00;60.50;;;;;;5053616;28;20055;-69
2022/10/20 11:24:19;;;;;;;6.18;4.72;;;21.90;62.10;;;;;;5053162;28;20033;-68
2022/10/20 11:26:53;;;;;;;13.43;5.75;;;21.90;62.30;;;;;;5053214;28;20041;-68
2022/10/20 11:29:31;;;;;;;7.00;5.25;;;22.00;63.00;;;;;;5053268;28;20041;-68
2022/10/20 11:32:19;;;;;;;8.65;5.50;;;22.00;62.80;;;;;;5053264;28;20059;-68
2022/10/20 11:34:44;;;;;;;10.10;5.25;;;22.00;62.00;;;;;;5053043;28;20120;-68
2022/10/20 11:37:16;;;;;;;8.95;5.18;;;22.20;61.60;;;;;;5052952;28;20065;-68
2022/10/20 11:39:56;;;;;;;12.98;6.20;;;22.10;62.60;;;;;;5053078;28;20072;-69
2022/10/20 11:42:28;;;;;;;11.48;5.40;;;22.20;62.20;;;;;;5053062;28;20040;-66
2022/10/20 11:44:58;;;;;;;11.55;4.57;;;22.20;61.20;;;;;;5053035;28;20037;-67
2022/10/20 11:47:35;;;;;;;12.38;5.68;;;22.20;61.40;;;;;;5052866;28;20029;-67
2022/10/20 11:50:05;;;;;;;10.95;4.93;;;22.20;61.80;;;;;;5053067;28;20053;-67
2022/10/20 11:52:59;;;;;;;9.88;5.63;;;22.20;61.60;;;;;;5053007;28;20114;-67
2022/10/20 11:55:58;;;;;;;9.93;5.32;;;22.30;61.60;;;;;;5052962;28;20486;-67
2022/10/20 11:59:02;;;;;;;7.60;5.50;;;22.30;61.40;;;;;;5035333;28;20037;-67
2022/10/20 12:02:04;;;;;;;8.57;5.22;;;22.40;60.10;;;;;;5052952;28;20049;-68
2022/10/20 12:04:35;;;;;;;8.13;5.15;;;22.40;61.10;;;;;;5008457;28;20068;-67
2022/10/20 12:07:33;;;;;;;8.07;5.50;;;22.40;60.00;;;;;;5052750;28;20039;-67
2022/10/20 12:10:21;;;;;;;13.05;5.38;;;22.40;60.40;;;;;;5048631;28;20466;-69
2022/10/20 12:13:00;;;;;;;8.18;4.97;;;22.40;60.30;;;;;;5055695;28;20041;-70
2022/10/20 12:15:27;;;;;;;11.63;5.07;;;22.40;60.80;;;;;;5039083;28;20041;-68
2022/10/20 12:17:57;;;;;;;7.82;5.28;;;22.50;60.90;;;;;;5057034;28;20032;-69
2022/10/20 12:20:22;;;;;;;6.57;5.20;;;22.50;60.40;;;;;;5057056;28;20029;-69
2022/10/20 12:22:49;;;;;;;7.35;4.97;;;22.60;60.40;;;;;;5056599;28;20063;-69
2022/10/20 12:25:24;;;;;;;7.57;5.00;;;22.60;60.40;;;;;;5056907;28;20029;-69
2022/10/20 12:28:21;;;;;;;10.00;5.57;;;22.70;60.90;;;;;;5056657;28;20048;-69
2022/10/20 12:30:56;;;;;;;9.48;5.07;;;22.80;61.10;;;;;;5056384;28;20504;-70
2022/10/20 12:33:49;;;;;;;9.55;5.40;;;22.80;60.10;;;;;;5056180;28;20049;-68
2022/10/20 12:36:17;;;;;;;8.80;5.32;;;22.90;60.80;;;;;;5056357;28;20535;-68
2022/10/20 12:39:11;;;;;;;12.07;5.80;;;22.90;60.40;;;;;;5056512;28;20029;-69
2022/10/20 12:42:35;;;;;;;7.93;4.95;;;22.90;60.30;;;;;;5053965;28;20091;-68
2022/10/20 12:45:19;;;;;;;8.90;5.32;;;23.00;60.90;;;;;;5022915;28;20084;-70
2022/10/20 12:47:54;;;;;;;7.10;4.97;;;23.00;60.30;;;;;;5056455;28;20048;-69
2022/10/20 12:50:38;;;;;;;11.57;5.22;;;22.90;60.20;;;;;;5056381;28;20482;-69
2022/10/20 12:53:26;;;;;;;11.55;5.35;;;22.90;59.70;;;;;;5056183;28;20112;-69
2022/10/20 12:56:07;;;;;;;10.00;5.50;;;22.90;59.10;;;;;;5056056;28;20068;-69
2022/10/20 12:58:35;;;;;;;9.60;5.60;;;22.90;58.90;;;;;;5056081;28;20029;-69